PRIVATE WETTERSTATION BILLIGHEIM-ALLFELD                       ZURCK
Wetterdaten: Freitag, 23.05.2014
Datum Zeit Temp. A. Temp. A. min Temp. A. max Feuchte A. Luftdruck Regen Wind Richtung Richtung Sonnenschein ET Solar Taupunkt Windchill Windben Empfang
23.05.2014 00:00 15,1 C 15,1 C 15,2 C 72 % 1010,3 hPa 0,0 l/m 4,8 km/h (1 Bft) NW 315 0 min 0,025 mm 0 W/m 10,1 C 15,1 C 16,1 km/h (3 Bft) 97 %
23.05.2014 00:10 15,1 C 15,1 C 15,1 C 73 % 1010,0 hPa 0,0 l/m 3,2 km/h (1 Bft) NW 315 0 min 0,000 mm 0 W/m 10,3 C 15,1 C 12,9 km/h (3 Bft) 97 %
23.05.2014 00:20 14,8 C 14,8 C 15,1 C 74 % 1010,3 hPa 0,0 l/m 0,0 km/h (0 Bft) NW 315 0 min 0,000 mm 0 W/m 10,2 C 14,8 C 4,8 km/h (1 Bft) 87 %
23.05.2014 00:30 14,5 C 14,5 C 14,8 C 77 % 1010,3 hPa 0,0 l/m 0,0 km/h (0 Bft) NW 315 0 min 0,000 mm 0 W/m 10,5 C 14,5 C 1,6 km/h (1 Bft) 98 %
23.05.2014 00:40 14,3 C 14,2 C 14,5 C 78 % 1010,1 hPa 0,0 l/m 0,0 km/h (0 Bft) N 0 0 min 0,000 mm 0 W/m 10,5 C 14,3 C 0,0 km/h (0 Bft) 97 %
23.05.2014 00:50 14,2 C 14,2 C 14,2 C 78 % 1009,9 hPa 0,0 l/m 0,0 km/h (0 Bft) N 0 0 min 0,000 mm 0 W/m 10,4 C 14,2 C 0,0 km/h (0 Bft) 98 %
23.05.2014 01:00 14,1 C 14,1 C 14,2 C 78 % 1009,7 hPa 0,0 l/m 0,0 km/h (0 Bft) N 0 0 min 0,025 mm 0 W/m 10,3 C 14,1 C 0,0 km/h (0 Bft) 97 %
23.05.2014 01:10 14,0 C 14,0 C 14,1 C 78 % 1009,8 hPa 0,0 l/m 0,0 km/h (0 Bft) N 0 0 min 0,000 mm 0 W/m 10,2 C 14,0 C 0,0 km/h (0 Bft) 98 %
23.05.2014 01:20 13,9 C 13,9 C 14,0 C 79 % 1009,4 hPa 0,0 l/m 0,0 km/h (0 Bft) NW 315 0 min 0,000 mm 0 W/m 10,3 C 13,9 C 1,6 km/h (1 Bft) 98 %
23.05.2014 01:30 13,8 C 13,8 C 13,9 C 80 % 1009,5 hPa 0,0 l/m 0,0 km/h (0 Bft) NW 315 0 min 0,000 mm 0 W/m 10,4 C 13,8 C 1,6 km/h (1 Bft) 97 %
23.05.2014 01:40 13,7 C 13,7 C 13,8 C 80 % 1009,5 hPa 0,0 l/m 0,0 km/h (0 Bft) N 0 0 min 0,000 mm 0 W/m 10,3 C 13,7 C 0,0 km/h (0 Bft) 97 %
23.05.2014 01:50 13,7 C 13,7 C 13,7 C 82 % 1009,2 hPa 0,0 l/m 0,0 km/h (0 Bft) N 0 0 min 0,000 mm 0 W/m 10,7 C 13,7 C 0,0 km/h (0 Bft) 97 %
23.05.2014 02:00 13,6 C 13,6 C 13,7 C 81 % 1009,2 hPa 0,0 l/m 0,0 km/h (0 Bft) N 0 0 min 0,025 mm 0 W/m 10,4 C 13,6 C 0,0 km/h (0 Bft) 97 %
23.05.2014 02:10 13,6 C 13,6 C 13,6 C 82 % 1009,1 hPa 0,0 l/m 0,0 km/h (0 Bft) N 0 0 min 0,000 mm 0 W/m 10,6 C 13,6 C 0,0 km/h (0 Bft) 98 %
23.05.2014 02:20 13,6 C 13,6 C 13,6 C 83 % 1009,2 hPa 0,0 l/m 0,0 km/h (0 Bft) NW 315 0 min 0,000 mm 0 W/m 10,8 C 13,6 C 1,6 km/h (1 Bft) 97 %
23.05.2014 02:30 13,4 C 13,4 C 13,6 C 83 % 1008,9 hPa 0,0 l/m 0,0 km/h (0 Bft) N 0 0 min 0,000 mm 0 W/m 10,6 C 13,4 C 0,0 km/h (0 Bft) 98 %
23.05.2014 02:40 13,2 C 13,2 C 13,4 C 84 % 1008,9 hPa 0,0 l/m 0,0 km/h (0 Bft) NW 315 0 min 0,000 mm 0 W/m 10,6 C 13,2 C 4,8 km/h (1 Bft) 97 %
23.05.2014 02:50 13,0 C 13,0 C 13,2 C 84 % 1008,9 hPa 0,0 l/m 1,6 km/h (1 Bft) O-SO 112 0 min 0,000 mm 0 W/m 10,4 C 13,0 C 4,8 km/h (1 Bft) 98 %
23.05.2014 03:00 12,9 C 12,9 C 13,0 C 83 % 1008,8 hPa 0,0 l/m 0,0 km/h (0 Bft) SO 135 0 min 0,025 mm 0 W/m 10,1 C 12,9 C 4,8 km/h (1 Bft) 97 %
23.05.2014 03:10 12,9 C 12,9 C 12,9 C 83 % 1008,5 hPa 0,0 l/m 0,0 km/h (0 Bft) SO 135 0 min 0,000 mm 0 W/m 10,1 C 12,9 C 1,6 km/h (1 Bft) 97 %
23.05.2014 03:20 12,8 C 12,8 C 12,9 C 83 % 1008,8 hPa 0,0 l/m 0,0 km/h (0 Bft) SO 135 0 min 0,000 mm 0 W/m 10,0 C 12,8 C 3,2 km/h (1 Bft) 98 %
23.05.2014 03:30 12,8 C 12,8 C 12,8 C 83 % 1008,9 hPa 0,0 l/m 1,6 km/h (1 Bft) SO 135 0 min 0,000 mm 0 W/m 10,0 C 12,8 C 4,8 km/h (1 Bft) 98 %
23.05.2014 03:40 12,7 C 12,7 C 12,8 C 83 % 1008,7 hPa 0,0 l/m 1,6 km/h (1 Bft) SO 135 0 min 0,000 mm 0 W/m 9,9 C 12,7 C 6,4 km/h (2 Bft) 97 %
23.05.2014 03:50 12,8 C 12,7 C 12,8 C 83 % 1008,6 hPa 0,0 l/m 1,6 km/h (1 Bft) SO 135 0 min 0,000 mm 0 W/m 10,0 C 12,8 C 4,8 km/h (1 Bft) 98 %
23.05.2014 04:00 12,8 C 12,8 C 12,8 C 83 % 1008,7 hPa 0,0 l/m 3,2 km/h (1 Bft) SO 135 0 min 0,025 mm 0 W/m 10,0 C 12,8 C 4,8 km/h (1 Bft) 98 %
23.05.2014 04:10 12,8 C 12,8 C 12,8 C 84 % 1008,6 hPa 0,0 l/m 1,6 km/h (1 Bft) SO 135 0 min 0,000 mm 0 W/m 10,2 C 12,8 C 4,8 km/h (1 Bft) 97 %
23.05.2014 04:20 12,8 C 12,7 C 12,8 C 84 % 1008,4 hPa 0,0 l/m 1,6 km/h (1 Bft) SO 135 0 min 0,000 mm 0 W/m 10,2 C 12,8 C 4,8 km/h (1 Bft) 97 %
23.05.2014 04:30 12,8 C 12,7 C 12,8 C 84 % 1008,1 hPa 0,0 l/m 0,0 km/h (0 Bft) SO 135 0 min 0,000 mm 0 W/m 10,2 C 12,8 C 1,6 km/h (1 Bft) 98 %
23.05.2014 04:40 12,7 C 12,7 C 12,8 C 84 % 1007,6 hPa 0,0 l/m 0,0 km/h (0 Bft) SO 135 0 min 0,000 mm 0 W/m 10,1 C 12,7 C 3,2 km/h (1 Bft) 98 %
23.05.2014 04:50 12,6 C 12,6 C 12,7 C 84 % 1007,9 hPa 0,0 l/m 0,0 km/h (0 Bft) N 0 0 min 0,000 mm 0 W/m 10,0 C 12,6 C 0,0 km/h (0 Bft) 97 %
23.05.2014 05:00 12,3 C 12,3 C 12,6 C 84 % 1007,7 hPa 0,0 l/m 0,0 km/h (0 Bft) N 0 0 min 0,000 mm 0 W/m 9,7 C 12,3 C 0,0 km/h (0 Bft) 97 %
23.05.2014 05:10 12,2 C 12,2 C 12,3 C 85 % 1007,8 hPa 0,0 l/m 0,0 km/h (0 Bft) SO 135 0 min 0,000 mm 0 W/m 9,8 C 12,2 C 3,2 km/h (1 Bft) 98 %
23.05.2014 05:20 12,1 C 12,1 C 12,2 C 85 % 1007,5 hPa 0,0 l/m 0,0 km/h (0 Bft) N 0 0 min 0,000 mm 0 W/m 9,7 C 12,1 C 0,0 km/h (0 Bft) 97 %
23.05.2014 05:30 12,0 C 12,0 C 12,1 C 86 % 1007,8 hPa 0,0 l/m 0,0 km/h (0 Bft) SO 135 0 min 0,000 mm 0 W/m 9,7 C 12,0 C 3,2 km/h (1 Bft) 98 %
23.05.2014 05:40 11,9 C 11,9 C 12,0 C 86 % 1007,8 hPa 0,0 l/m 0,0 km/h (0 Bft) N 0 0 min 0,000 mm 0 W/m 9,6 C 11,9 C 0,0 km/h (0 Bft) 97 %
23.05.2014 05:50 11,9 C 11,9 C 11,9 C 86 % 1008,3 hPa 0,0 l/m 0,0 km/h (0 Bft) N 0 0 min 0,000 mm 5 W/m 9,6 C 11,9 C 0,0 km/h (0 Bft) 97 %
23.05.2014 06:00 11,9 C 11,8 C 11,9 C 86 % 1008,8 hPa 0,0 l/m 0,0 km/h (0 Bft) N 360 0 min 0,000 mm 0 W/m 9,6 C 11,9 C 3,2 km/h (1 Bft) 97 %
23.05.2014 06:10 11,9 C 11,8 C 11,9 C 86 % 1008,3 hPa 0,0 l/m 0,0 km/h (0 Bft) N 360 0 min 0,000 mm 14 W/m 9,6 C 11,9 C 1,6 km/h (1 Bft) 96 %
23.05.2014 06:20 12,0 C 11,9 C 12,0 C 86 % 1008,5 hPa 0,0 l/m 0,0 km/h (0 Bft) N 360 0 min 0,000 mm 16 W/m 9,7 C 12,0 C 1,6 km/h (1 Bft) 98 %
23.05.2014 06:30 12,1 C 12,0 C 12,1 C 86 % 1008,5 hPa 0,0 l/m 0,0 km/h (0 Bft) N 360 0 min 0,000 mm 23 W/m 9,8 C 12,1 C 3,2 km/h (1 Bft) 97 %
23.05.2014 06:40 12,2 C 12,1 C 12,2 C 86 % 1008,3 hPa 0,0 l/m 0,0 km/h (0 Bft) N 360 0 min 0,000 mm 32 W/m 9,9 C 12,2 C 3,2 km/h (1 Bft) 98 %
23.05.2014 06:50 12,3 C 12,2 C 12,3 C 87 % 1008,3 hPa 0,0 l/m 0,0 km/h (0 Bft) N 0 0 min 0,000 mm 47 W/m 10,2 C 12,3 C 0,0 km/h (0 Bft) 97 %
23.05.2014 07:00 12,4 C 12,3 C 12,4 C 86 % 1008,3 hPa 0,0 l/m 0,0 km/h (0 Bft) N 360 0 min 0,025 mm 93 W/m 10,1 C 12,4 C 3,2 km/h (1 Bft) 96 %
23.05.2014 07:10 12,7 C 12,4 C 12,7 C 87 % 1008,1 hPa 0,0 l/m 1,6 km/h (1 Bft) N-NW 337 0 min 0,000 mm 100 W/m 10,6 C 12,7 C 6,4 km/h (2 Bft) 97 %
23.05.2014 07:20 12,8 C 12,7 C 12,8 C 86 % 1008,2 hPa 0,0 l/m 1,6 km/h (1 Bft) N-NW 337 0 min 0,000 mm 74 W/m 10,5 C 12,8 C 6,4 km/h (2 Bft) 97 %
23.05.2014 07:30 12,9 C 12,8 C 12,9 C 86 % 1008,7 hPa 0,0 l/m 4,8 km/h (1 Bft) W-NW 292 0 min 0,000 mm 69 W/m 10,6 C 12,9 C 9,7 km/h (2 Bft) 98 %
23.05.2014 07:40 13,0 C 12,9 C 13,0 C 86 % 1008,8 hPa 0,0 l/m 4,8 km/h (1 Bft) W 270 0 min 0,000 mm 46 W/m 10,7 C 13,0 C 12,9 km/h (3 Bft) 97 %
23.05.2014 07:50 13,1 C 13,0 C 13,1 C 86 % 1009,0 hPa 0,0 l/m 4,8 km/h (1 Bft) W 270 0 min 0,000 mm 70 W/m 10,8 C 13,1 C 16,1 km/h (3 Bft) 98 %
23.05.2014 08:00 13,1 C 13,1 C 13,1 C 86 % 1008,9 hPa 0,0 l/m 8,0 km/h (2 Bft) W-SW 247 0 min 0,051 mm 134 W/m 10,8 C 12,1 C 16,1 km/h (3 Bft) 98 %
23.05.2014 08:10 13,1 C 13,1 C 13,1 C 87 % 1009,5 hPa 0,0 l/m 3,2 km/h (1 Bft) W 270 0 min 0,000 mm 116 W/m 11,0 C 13,1 C 12,9 km/h (3 Bft) 98 %
23.05.2014 08:20 13,2 C 13,1 C 13,2 C 86 % 1009,9 hPa 0,0 l/m 3,2 km/h (1 Bft) W 270 0 min 0,000 mm 95 W/m 10,9 C 13,2 C 11,3 km/h (2 Bft) 98 %
23.05.2014 08:30 13,2 C 13,1 C 13,2 C 86 % 1009,8 hPa 0,0 l/m 4,8 km/h (1 Bft) W 270 0 min 0,000 mm 81 W/m 10,9 C 13,2 C 9,7 km/h (2 Bft) 97 %
23.05.2014 08:40 13,1 C 13,1 C 13,2 C 87 % 1010,2 hPa 0,0 l/m 4,8 km/h (1 Bft) W 270 0 min 0,000 mm 30 W/m 11,0 C 13,1 C 19,3 km/h (3 Bft) 98 %
23.05.2014 08:50 12,9 C 12,9 C 13,1 C 86 % 1010,3 hPa 0,0 l/m 6,4 km/h (2 Bft) W 270 0 min 0,000 mm 33 W/m 10,6 C 12,9 C 17,7 km/h (3 Bft) 89 %
23.05.2014 09:00 12,8 C 12,8 C 12,9 C 87 % 1010,2 hPa 0,4 l/m 8,0 km/h (2 Bft) W-SW 247 0 min 0,025 mm 42 W/m 10,7 C 11,8 C 20,9 km/h (4 Bft) 97 %
23.05.2014 09:10 12,7 C 12,7 C 12,8 C 87 % 1010,3 hPa 0,4 l/m 8,0 km/h (2 Bft) W 270 0 min 0,000 mm 72 W/m 10,6 C 11,7 C 19,3 km/h (3 Bft) 97 %
23.05.2014 09:20 12,6 C 12,6 C 12,7 C 87 % 1010,6 hPa 0,0 l/m 9,7 km/h (2 Bft) W-SW 247 0 min 0,000 mm 69 W/m 10,5 C 10,6 C 20,9 km/h (4 Bft) 97 %
23.05.2014 09:30 12,6 C 12,6 C 12,6 C 87 % 1010,3 hPa 0,2 l/m 6,4 km/h (2 Bft) W-SW 247 0 min 0,000 mm 81 W/m 10,5 C 12,6 C 17,7 km/h (3 Bft) 97 %
23.05.2014 09:40 12,6 C 12,6 C 12,6 C 87 % 1010,5 hPa 0,2 l/m 6,4 km/h (2 Bft) W-SW 247 0 min 0,000 mm 81 W/m 10,5 C 12,6 C 17,7 km/h (3 Bft) 98 %
23.05.2014 09:50 12,6 C 12,6 C 12,6 C 87 % 1010,6 hPa 0,2 l/m 4,8 km/h (1 Bft) SW 225 0 min 0,000 mm 65 W/m 10,5 C 12,6 C 22,5 km/h (4 Bft) 97 %
23.05.2014 10:00 12,5 C 12,4 C 12,6 C 87 % 1011,2 hPa 0,2 l/m 8,0 km/h (2 Bft) SW 225 0 min 0,051 mm 74 W/m 10,4 C 11,5 C 24,1 km/h (4 Bft) 98 %
23.05.2014 10:10 12,4 C 12,4 C 12,5 C 87 % 1011,3 hPa 0,4 l/m 8,0 km/h (2 Bft) SW 225 0 min 0,000 mm 123 W/m 10,3 C 11,4 C 17,7 km/h (3 Bft) 98 %
23.05.2014 10:20 12,5 C 12,4 C 12,5 C 87 % 1011,5 hPa 0,2 l/m 4,8 km/h (1 Bft) SW 225 0 min 0,000 mm 130 W/m 10,4 C 12,5 C 17,7 km/h (3 Bft) 98 %
23.05.2014 10:30 12,5 C 12,5 C 12,6 C 87 % 1011,7 hPa 0,4 l/m 6,4 km/h (2 Bft) W-SW 247 0 min 0,000 mm 146 W/m 10,4 C 12,5 C 19,3 km/h (3 Bft) 97 %
23.05.2014 10:40 12,6 C 12,5 C 12,6 C 87 % 1011,7 hPa 0,2 l/m 6,4 km/h (2 Bft) W-SW 247 10 min 0,000 mm 218 W/m 10,5 C 12,6 C 19,3 km/h (3 Bft) 98 %
23.05.2014 10:50 12,8 C 12,6 C 12,8 C 87 % 1011,8 hPa 0,0 l/m 4,8 km/h (1 Bft) W-SW 247 10 min 0,000 mm 178 W/m 10,7 C 12,8 C 16,1 km/h (3 Bft) 98 %
23.05.2014 11:00 12,9 C 12,8 C 12,9 C 87 % 1011,8 hPa 0,0 l/m 4,8 km/h (1 Bft) S-SW 202 10 min 0,076 mm 246 W/m 10,8 C 12,9 C 12,9 km/h (3 Bft) 97 %
23.05.2014 11:10 13,1 C 12,9 C 13,1 C 87 % 1011,5 hPa 0,0 l/m 6,4 km/h (2 Bft) SW 225 10 min 0,000 mm 461 W/m 11,0 C 13,1 C 17,7 km/h (3 Bft) 98 %
23.05.2014 11:20 13,8 C 13,1 C 13,8 C 87 % 1011,5 hPa 0,0 l/m 4,8 km/h (1 Bft) W 270 10 min 0,000 mm 738 W/m 11,7 C 13,8 C 14,5 km/h (3 Bft) 97 %
23.05.2014 11:30 14,0 C 13,8 C 14,0 C 87 % 1011,2 hPa 0,0 l/m 4,8 km/h (1 Bft) SW 225 10 min 0,000 mm 380 W/m 11,9 C 14,0 C 14,5 km/h (3 Bft) 98 %
23.05.2014 11:40 14,1 C 14,0 C 14,1 C 87 % 1011,5 hPa 0,0 l/m 4,8 km/h (1 Bft) W-NW 292 10 min 0,000 mm 244 W/m 12,0 C 14,1 C 14,5 km/h (3 Bft) 98 %
23.05.2014 11:50 14,2 C 14,1 C 14,2 C 86 % 1011,3 hPa 0,0 l/m 4,8 km/h (1 Bft) W 270 10 min 0,000 mm 306 W/m 11,9 C 14,2 C 14,5 km/h (3 Bft) 98 %
23.05.2014 12:00 14,6 C 14,2 C 14,6 C 86 % 1011,0 hPa 0,0 l/m 1,6 km/h (1 Bft) W-SW 247 10 min 0,203 mm 548 W/m 12,3 C 14,6 C 8,0 km/h (2 Bft) 98 %
23.05.2014 12:10 15,1 C 14,6 C 15,1 C 84 % 1011,1 hPa 0,0 l/m 3,2 km/h (1 Bft) W-NW 292 10 min 0,000 mm 1136 W/m 12,4 C 15,1 C 11,3 km/h (2 Bft) 97 %
23.05.2014 12:20 15,4 C 15,1 C 15,4 C 81 % 1011,1 hPa 0,0 l/m 1,6 km/h (1 Bft) W-SW 247 10 min 0,000 mm 476 W/m 12,2 C 15,4 C 8,0 km/h (2 Bft) 98 %
23.05.2014 12:30 16,1 C 15,3 C 16,1 C 81 % 1011,2 hPa 0,0 l/m 3,2 km/h (1 Bft) SW 225 10 min 0,000 mm 1192 W/m 12,8 C 16,1 C 11,3 km/h (2 Bft) 98 %
23.05.2014 12:40 16,1 C 16,1 C 16,2 C 79 % 1011,2 hPa 0,0 l/m 4,8 km/h (1 Bft) W 270 10 min 0,000 mm 295 W/m 12,5 C 16,1 C 11,3 km/h (2 Bft) 98 %
23.05.2014 12:50 15,9 C 15,9 C 16,1 C 80 % 1011,2 hPa 0,0 l/m 3,2 km/h (1 Bft) W-NW 292 10 min 0,000 mm 399 W/m 12,5 C 15,9 C 11,3 km/h (2 Bft) 97 %
23.05.2014 13:00 16,4 C 15,9 C 16,4 C 80 % 1011,1 hPa 0,0 l/m 4,8 km/h (1 Bft) NW 315 10 min 0,305 mm 1151 W/m 12,9 C 16,4 C 14,5 km/h (3 Bft) 98 %
23.05.2014 13:10 16,7 C 16,4 C 16,7 C 76 % 1011,2 hPa 0,0 l/m 3,2 km/h (1 Bft) W 270 10 min 0,000 mm 1174 W/m 12,4 C 16,7 C 11,3 km/h (2 Bft) 97 %
23.05.2014 13:20 16,9 C 16,7 C 16,9 C 76 % 1011,3 hPa 0,0 l/m 3,2 km/h (1 Bft) SW 225 10 min 0,000 mm 1130 W/m 12,6 C 16,9 C 14,5 km/h (3 Bft) 98 %
23.05.2014 13:30 17,0 C 16,8 C 17,0 C 75 % 1011,3 hPa 0,0 l/m 3,2 km/h (1 Bft) W-NW 292 10 min 0,000 mm 529 W/m 12,5 C 17,0 C 12,9 km/h (3 Bft) 99 %
23.05.2014 13:40 17,4 C 17,0 C 17,4 C 77 % 1011,3 hPa 0,0 l/m 3,2 km/h (1 Bft) NW 315 10 min 0,000 mm 1136 W/m 13,3 C 17,4 C 11,3 km/h (2 Bft) 100 %
23.05.2014 13:50 18,0 C 17,5 C 18,0 C 67 % 1011,3 hPa 0,0 l/m 3,2 km/h (1 Bft) W 270 10 min 0,000 mm 1027 W/m 11,8 C 18,0 C 11,3 km/h (2 Bft) 99 %
23.05.2014 14:00 18,1 C 18,0 C 18,1 C 69 % 1011,2 hPa 0,0 l/m 1,6 km/h (1 Bft) W 270 10 min 0,381 mm 1002 W/m 12,3 C 18,1 C 8,0 km/h (2 Bft) 100 %
23.05.2014 14:10 17,9 C 17,9 C 18,1 C 70 % 1011,2 hPa 0,0 l/m 1,6 km/h (1 Bft) W-NW 292 10 min 0,000 mm 415 W/m 12,3 C 17,9 C 9,7 km/h (2 Bft) 100 %
23.05.2014 14:20 17,8 C 17,8 C 17,9 C 70 % 1011,3 hPa 0,0 l/m 0,0 km/h (0 Bft) W-NW 292 10 min 0,000 mm 374 W/m 12,3 C 17,8 C 4,8 km/h (1 Bft) 100 %
23.05.2014 14:30 17,8 C 17,7 C 17,9 C 68 % 1011,3 hPa 0,0 l/m 0,0 km/h (0 Bft) SW 225 10 min 0,000 mm 348 W/m 11,8 C 17,8 C 1,6 km/h (1 Bft) 100 %
23.05.2014 14:40 18,0 C 17,7 C 18,0 C 71 % 1011,2 hPa 0,0 l/m 1,6 km/h (1 Bft) O-SO 112 10 min 0,000 mm 1113 W/m 12,7 C 18,0 C 9,7 km/h (2 Bft) 100 %
23.05.2014 14:50 18,1 C 18,1 C 18,2 C 67 % 1011,1 hPa 0,0 l/m 1,6 km/h (1 Bft) O-SO 112 10 min 0,000 mm 1027 W/m 11,9 C 18,1 C 6,4 km/h (2 Bft) 100 %
23.05.2014 15:00 17,8 C 17,8 C 18,1 C 68 % 1011,2 hPa 0,0 l/m 0,0 km/h (0 Bft) O-SO 112 10 min 0,254 mm 360 W/m 11,8 C 17,8 C 3,2 km/h (1 Bft) 100 %
23.05.2014 15:10 17,8 C 17,7 C 17,8 C 67 % 1011,2 hPa 0,0 l/m 1,6 km/h (1 Bft) S 180 10 min 0,000 mm 278 W/m 11,6 C 17,8 C 8,0 km/h (2 Bft) 100 %
23.05.2014 15:20 18,1 C 17,8 C 18,1 C 67 % 1011,2 hPa 0,0 l/m 1,6 km/h (1 Bft) SW 225 10 min 0,000 mm 429 W/m 11,9 C 18,1 C 8,0 km/h (2 Bft) 100 %
23.05.2014 15:30 18,5 C 18,1 C 18,5 C 66 % 1011,2 hPa 0,0 l/m 0,0 km/h (0 Bft) SW 225 10 min 0,000 mm 861 W/m 12,0 C 18,5 C 3,2 km/h (1 Bft) 99 %
23.05.2014 15:40 19,2 C 18,5 C 19,2 C 66 % 1011,3 hPa 0,0 l/m 1,6 km/h (1 Bft) S 180 10 min 0,000 mm 882 W/m 12,7 C 19,2 C 9,7 km/h (2 Bft) 98 %
23.05.2014 15:50 19,9 C 19,2 C 19,9 C 63 % 1011,2 hPa 0,0 l/m 6,4 km/h (2 Bft) S-SW 202 10 min 0,000 mm 842 W/m 12,6 C 19,9 C 17,7 km/h (3 Bft) 100 %
23.05.2014 16:00 20,1 C 19,9 C 20,1 C 59 % 1010,9 hPa 0,0 l/m 1,6 km/h (1 Bft) S-SW 202 10 min 0,356 mm 765 W/m 11,8 C 20,1 C 8,0 km/h (2 Bft) 100 %
23.05.2014 16:10 20,2 C 20,1 C 20,2 C 61 % 1010,9 hPa 0,0 l/m 1,6 km/h (1 Bft) NW 315 10 min 0,000 mm 729 W/m 12,4 C 20,2 C 6,4 km/h (2 Bft) 99 %
23.05.2014 16:20 20,4 C 20,2 C 20,4 C 58 % 1010,8 hPa 0,0 l/m 1,6 km/h (1 Bft) W 270 10 min 0,000 mm 726 W/m 11,9 C 20,4 C 9,7 km/h (2 Bft) 100 %
23.05.2014 16:30 20,3 C 20,3 C 20,4 C 60 % 1010,7 hPa 0,0 l/m 1,6 km/h (1 Bft) W 270 10 min 0,000 mm 724 W/m 12,3 C 20,3 C 6,4 km/h (2 Bft) 89 %
23.05.2014 16:40 20,3 C 20,3 C 20,4 C 60 % 1010,5 hPa 0,0 l/m 3,2 km/h (1 Bft) S-SO 157 10 min 0,000 mm 707 W/m 12,3 C 20,3 C 9,7 km/h (2 Bft) 100 %
23.05.2014 16:50 20,3 C 20,2 C 20,3 C 64 % 1010,6 hPa 0,0 l/m 3,2 km/h (1 Bft) S-SO 157 10 min 0,000 mm 700 W/m 13,3 C 20,3 C 20,9 km/h (4 Bft) 100 %
23.05.2014 17:00 20,2 C 20,2 C 20,3 C 60 % 1010,6 hPa 0,0 l/m 2,9 km/h (1 Bft) O 94 0 min 0,358 mm 137 W/m 12,2 C 20,2 C 11,3 km/h (2 Bft) 97 %
23.05.2014 17:10 19,8 C 19,8 C 20,2 C 59 % 1010,6 hPa 0,0 l/m 3,1 km/h (1 Bft) S-SO 148 10 min 0,000 mm 360 W/m 11,6 C 19,8 C 11,3 km/h (2 Bft) 97 %
23.05.2014 17:20 20,0 C 19,8 C 20,0 C 59 % 1010,6 hPa 0,0 l/m 1,8 km/h (1 Bft) W-SW 240 10 min 0,000 mm 592 W/m 11,7 C 20,0 C 11,3 km/h (2 Bft) 98 %
23.05.2014 17:30 19,9 C 19,9 C 20,0 C 59 % 1010,5 hPa 0,0 l/m 0,7 km/h (0 Bft) W 277 0 min 0,000 mm 135 W/m 11,6 C 19,9 C 8,0 km/h (2 Bft) 97 %
23.05.2014 17:40 20,1 C 19,9 C 20,1 C 60 % 1010,5 hPa 0,0 l/m 0,7 km/h (0 Bft) SO 139 10 min 0,000 mm 415 W/m 12,1 C 20,1 C 8,0 km/h (2 Bft) 98 %
23.05.2014 17:50 20,1 C 20,1 C 20,1 C 59 % 1010,5 hPa 0,0 l/m 3,3 km/h (1 Bft) S-SW 213 10 min 0,000 mm 520 W/m 11,8 C 20,1 C 11,3 km/h (2 Bft) 98 %
23.05.2014 18:00 19,7 C 19,7 C 20,1 C 60 % 1010,5 hPa 0,0 l/m 1,7 km/h (1 Bft) S-SO 165 0 min 0,178 mm 90 W/m 11,7 C 19,7 C 9,7 km/h (2 Bft) 97 %
23.05.2014 18:10 19,1 C 19,1 C 19,7 C 62 % 1010,3 hPa 0,0 l/m 0,0 km/h (0 Bft) S-SW 209 0 min 0,000 mm 62 W/m 11,6 C 19,1 C 1,6 km/h (1 Bft) 98 %
23.05.2014 18:20 18,7 C 18,7 C 19,1 C 66 % 1010,2 hPa 0,0 l/m 0,0 km/h (0 Bft) S-SW 209 0 min 0,000 mm 42 W/m 12,2 C 18,7 C 1,6 km/h (1 Bft) 97 %
23.05.2014 18:30 18,3 C 18,3 C 18,7 C 66 % 1010,1 hPa 0,0 l/m 0,0 km/h (0 Bft) S-SW 209 10 min 0,000 mm 339 W/m 11,8 C 18,3 C 1,6 km/h (1 Bft) 97 %
23.05.2014 18:40 18,3 C 18,2 C 18,3 C 68 % 1010,0 hPa 0,0 l/m 0,2 km/h (0 Bft) W 266 10 min 0,000 mm 316 W/m 12,3 C 18,3 C 4,8 km/h (1 Bft) 97 %
23.05.2014 18:50 18,6 C 18,3 C 18,6 C 63 % 1010,1 hPa 0,0 l/m 0,1 km/h (0 Bft) W 266 10 min 0,000 mm 221 W/m 11,4 C 18,6 C 3,2 km/h (1 Bft) 98 %
23.05.2014 19:00 18,9 C 18,6 C 18,9 C 62 % 1009,9 hPa 0,0 l/m 0,6 km/h (0 Bft) W-SW 250 10 min 0,101 mm 265 W/m 11,5 C 18,9 C 6,4 km/h (2 Bft) 98 %
23.05.2014 19:10 18,9 C 18,9 C 18,9 C 59 % 1010,0 hPa 0,0 l/m 0,0 km/h (0 Bft) W-SW 237 0 min 0,000 mm 40 W/m 10,7 C 18,9 C 1,6 km/h (1 Bft) 97 %
23.05.2014 19:20 19,0 C 18,9 C 19,0 C 64 % 1010,0 hPa 0,0 l/m 0,0 km/h (0 Bft) W-SW 237 10 min 0,000 mm 200 W/m 12,0 C 19,0 C 1,6 km/h (1 Bft) 98 %
23.05.2014 19:30 18,8 C 18,8 C 19,0 C 65 % 1009,9 hPa 0,0 l/m 0,0 km/h (0 Bft) W-SW 237 0 min 0,000 mm 35 W/m 12,1 C 18,8 C 1,6 km/h (1 Bft) 97 %
23.05.2014 19:40 18,7 C 18,7 C 18,8 C 65 % 1010,0 hPa 0,0 l/m 0,0 km/h (0 Bft) W-SW 237 0 min 0,000 mm 33 W/m 12,0 C 18,7 C 1,6 km/h (1 Bft) 97 %
23.05.2014 19:50 18,6 C 18,6 C 18,7 C 67 % 1010,0 hPa 0,0 l/m 0,0 km/h (0 Bft) W-SW 237 0 min 0,000 mm 30 W/m 12,3 C 18,6 C 0,0 km/h (0 Bft) 98 %
23.05.2014 20:00 18,3 C 18,3 C 18,6 C 69 % 1010,1 hPa 0,0 l/m 0,1 km/h (0 Bft) W-SW 237 0 min 0,051 mm 26 W/m 12,5 C 18,3 C 1,6 km/h (1 Bft) 97 %
23.05.2014 20:10 18,2 C 18,2 C 18,3 C 70 % 1010,2 hPa 0,0 l/m 0,0 km/h (0 Bft) W-SW 237 0 min 0,000 mm 25 W/m 12,6 C 18,2 C 1,6 km/h (1 Bft) 98 %
23.05.2014 20:20 17,9 C 17,9 C 18,2 C 72 % 1010,0 hPa 0,0 l/m 0,0 km/h (0 Bft) W-SW 237 0 min 0,000 mm 21 W/m 12,8 C 17,9 C 0,0 km/h (0 Bft) 97 %
23.05.2014 20:30 17,6 C 17,6 C 17,9 C 74 % 1010,0 hPa 0,0 l/m 0,0 km/h (0 Bft) W-SW 237 0 min 0,000 mm 18 W/m 12,9 C 17,6 C 0,0 km/h (0 Bft) 98 %
23.05.2014 20:40 17,3 C 17,3 C 17,6 C 74 % 1009,9 hPa 0,0 l/m 0,0 km/h (0 Bft) W-SW 237 0 min 0,000 mm 14 W/m 12,6 C 17,3 C 0,0 km/h (0 Bft) 97 %
23.05.2014 20:50 16,9 C 16,9 C 17,3 C 75 % 1009,9 hPa 0,0 l/m 0,0 km/h (0 Bft) W-SW 237 0 min 0,000 mm 11 W/m 12,4 C 16,9 C 0,0 km/h (0 Bft) 98 %
23.05.2014 21:00 16,5 C 16,5 C 16,9 C 76 % 1009,8 hPa 0,0 l/m 0,0 km/h (0 Bft) S-SW 213 0 min 0,025 mm 7 W/m 12,3 C 16,5 C 0,0 km/h (0 Bft) 97 %
23.05.2014 21:10 16,0 C 16,0 C 16,5 C 76 % 1009,9 hPa 0,0 l/m 0,0 km/h (0 Bft) N 0 0 min 0,000 mm 7 W/m 11,8 C 16,0 C 0,0 km/h (0 Bft) 100 %
23.05.2014 21:20 15,6 C 15,6 C 16,0 C 75 % 1010,0 hPa 0,0 l/m 0,0 km/h (0 Bft) N 0 0 min 0,000 mm 0 W/m 11,2 C 15,6 C 0,0 km/h (0 Bft) 99 %
23.05.2014 21:30 15,2 C 15,2 C 15,6 C 74 % 1010,1 hPa 0,0 l/m 0,0 km/h (0 Bft) SO 135 0 min 0,000 mm 0 W/m 10,6 C 15,2 C 4,8 km/h (1 Bft) 100 %
23.05.2014 21:40 15,1 C 15,1 C 15,2 C 73 % 1010,2 hPa 0,0 l/m 0,0 km/h (0 Bft) O 90 0 min 0,000 mm 0 W/m 10,3 C 15,1 C 4,8 km/h (1 Bft) 100 %
23.05.2014 21:50 15,1 C 15,1 C 15,1 C 73 % 1010,5 hPa 0,0 l/m 0,0 km/h (0 Bft) O-SO 112 0 min 0,000 mm 0 W/m 10,3 C 15,1 C 3,2 km/h (1 Bft) 100 %
23.05.2014 22:00 15,1 C 15,1 C 15,1 C 75 % 1010,5 hPa 0,0 l/m 0,0 km/h (0 Bft) O-SO 112 0 min 0,000 mm 0 W/m 10,7 C 15,1 C 6,4 km/h (2 Bft) 100 %
23.05.2014 22:10 15,1 C 15,1 C 15,1 C 74 % 1010,4 hPa 0,0 l/m 0,0 km/h (0 Bft) N-NW 337 0 min 0,000 mm 0 W/m 10,5 C 15,1 C 3,2 km/h (1 Bft) 100 %
23.05.2014 22:20 15,1 C 15,1 C 15,1 C 74 % 1010,4 hPa 0,0 l/m 0,0 km/h (0 Bft) NO 45 0 min 0,000 mm 0 W/m 10,5 C 15,1 C 4,8 km/h (1 Bft) 100 %
23.05.2014 22:30 15,0 C 14,9 C 15,1 C 75 % 1010,3 hPa 0,0 l/m 0,0 km/h (0 Bft) N-NO 22 0 min 0,000 mm 0 W/m 10,6 C 15,0 C 8,0 km/h (2 Bft) 99 %
23.05.2014 22:40 14,9 C 14,8 C 15,0 C 75 % 1010,4 hPa 0,0 l/m 0,0 km/h (0 Bft) NO 45 0 min 0,000 mm 0 W/m 10,5 C 14,9 C 4,8 km/h (1 Bft) 100 %
23.05.2014 22:50 14,7 C 14,7 C 14,9 C 76 % 1010,3 hPa 0,0 l/m 0,0 km/h (0 Bft) N 360 0 min 0,000 mm 0 W/m 10,5 C 14,7 C 1,6 km/h (1 Bft) 100 %
23.05.2014 23:00 14,3 C 14,3 C 14,7 C 79 % 1010,4 hPa 0,0 l/m 0,0 km/h (0 Bft) N 360 0 min 0,025 mm 0 W/m 10,7 C 14,3 C 3,2 km/h (1 Bft) 100 %
23.05.2014 23:10 13,8 C 13,8 C 14,3 C 80 % 1010,6 hPa 0,0 l/m 1,6 km/h (1 Bft) NO 45 0 min 0,000 mm 0 W/m 10,4 C 13,8 C 8,0 km/h (2 Bft) 100 %
23.05.2014 23:20 13,7 C 13,6 C 13,8 C 80 % 1010,5 hPa 0,0 l/m 0,0 km/h (0 Bft) O 90 0 min 0,000 mm 0 W/m 10,3 C 13,7 C 3,2 km/h (1 Bft) 100 %
23.05.2014 23:30 13,7 C 13,7 C 13,7 C 79 % 1010,6 hPa 0,0 l/m 0,0 km/h (0 Bft) O-NO 67 0 min 0,000 mm 0 W/m 10,1 C 13,7 C 4,8 km/h (1 Bft) 100 %
23.05.2014 23:40 13,8 C 13,7 C 13,8 C 79 % 1010,7 hPa 0,0 l/m 0,0 km/h (0 Bft) O-NO 67 0 min 0,000 mm 0 W/m 10,2 C 13,8 C 6,4 km/h (2 Bft) 100 %
23.05.2014 23:50 13,9 C 13,8 C 13,9 C 79 % 1010,7 hPa 0,0 l/m 0,0 km/h (0 Bft) N-NO 22 0 min 0,000 mm 0 W/m 10,3 C 13,9 C 8,0 km/h (2 Bft) 100 %
_ Min-Zeit 06:00 06:00 05:50 16:20 05:20 - 00:20 - - - - - 05:40 09:20 00:40 00:20
Minimum _ 11,8 C 11,8 C 11,9 C 58 % 1007,5 hPa - 0,0 km/h (0 Bft) - - - - - 9,6 C 10,6 C 0,0 km/h (0 Bft) 87 %
_ Max-Zeit 16:20 16:30 16:20 06:50 10:50 09:00 09:20 - - 10:40 14:00 12:30 13:40 16:20 10:00 14:20
Maximum _ 20,4 C 20,3 C 20,4 C 87 % 1011,8 hPa 0,4 l/m 9,7 km/h
W-SW (2 Bft)
- - 10 min 0,381 mm 1192 W/m 13,3 C 20,4 C 24,1 km/h
SW (4 Bft)
100 %
Durchschnitt _ 15,2 C 15,1 C 15,3 C 77 % 1010,0 hPa #2,8 l/m 1,9 km/h (1 Bft) W - #7:50 h #2,590 mm 339 W/m 11,1 C 15,2 C 7,2 km/h (2 Bft) 98 %
PRIVATE WETTERSTATION BILLIGHEIM-ALLFELD - www.neckar-odenwald-wetter.de - Holger Sonntag